Crane Gaia — 3FXX2 — position and weather

sailwx.info

Track history (hours):
 
Tides and Currents Weather Stations Pressure Air Temp Water Temp Dewpoint Dewpoint Depression Visibility Wind Speed Wind Dir Waves Ship Positions

Crane Gaia

Last reported at 2017-May-28 04:00 UTC. Time now 2017-Jun-29 05:18 UTC.
Position N 22°01' E 119°29'.
Warning: this ship's position is 32 days out of date.

Length 115 m; draft 6.8 m.

Type: Tanker. MMSI: 352461000.

Date/timePositionNaut miles runAvg speedWind from/ knotsBaromVisibWave heightAir tempDewpointWater temp
2017-May-28 04:00N 22°01' E 119°29'714.2
2017-May-28 03:30N 22°06' E 119°34'2713.8
2017-May-28 01:33N 22°24' E 119°56'214.3
2017-May-28 01:25N 22°25' E 119°57'614.6
2017-May-28 01:00N 22°29' E 120°02'714.5
2017-May-28 00:30N 22°35' E 120°08'711.5
2017-May-27 23:56N 22°38' E 120°14'5 7.2
2017-May-27 23:14N 22°35' E 120°18'0 0.4
2017-May-27 22:56N 22°35' E 120°18'0 0.0
2017-May-27 06:09N 22°35' E 120°18'0 0.0
2017-May-27 05:57N 22°35' E 120°18'2 4.3
2017-May-27 05:30N 22°36' E 120°17'3 6.1
2017-May-27 05:00N 22°37' E 120°14'2 4.3
2017-May-27 04:26N 22°37' E 120°11'512.3
2017-May-27 04:00N 22°41' E 120°07'  
Track history (hours):
 
Tides and Currents Weather Stations Pressure Air Temp Water Temp Dewpoint Dewpoint Depression Visibility Wind Speed Wind Dir Waves Ship Positions

Crane Gaia

Last reported at 2017-May-28 04:00 UTC. Time now 2017-Jun-29 05:18 UTC.
Position N 22°01' E 119°29'.
Warning: this ship's position is 32 days out of date.

Length 115 m; draft 6.8 m.

Type: Tanker. MMSI: 352461000.

Date/timePositionNaut miles runAvg speedWind from/ knotsBaromVisibWave heightAir tempDewpointWater temp
2017-May-28 04:00N 22°01' E 119°29'714.2
2017-May-28 03:30N 22°06' E 119°34'2713.8
2017-May-28 01:33N 22°24' E 119°56'214.3
2017-May-28 01:25N 22°25' E 119°57'614.6
2017-May-28 01:00N 22°29' E 120°02'714.5
2017-May-28 00:30N 22°35' E 120°08'711.5
2017-May-27 23:56N 22°38' E 120°14'5 7.2
2017-May-27 23:14N 22°35' E 120°18'0 0.4
2017-May-27 22:56N 22°35' E 120°18'0 0.0
2017-May-27 06:09N 22°35' E 120°18'0 0.0
2017-May-27 05:57N 22°35' E 120°18'2 4.3
2017-May-27 05:30N 22°36' E 120°17'3 6.1
2017-May-27 05:00N 22°37' E 120°14'2 4.3
2017-May-27 04:26N 22°37' E 120°11'512.3
2017-May-27 04:00N 22°41' E 120°07'  

Dump ship's entire track history